createdAt,value
2022-11-29T00:03:11.523Z,18.50
2022-11-29T00:06:18.533Z,17.55
2022-11-29T00:08:55.085Z,16.80
2022-11-29T00:11:55.473Z,17.80
2022-11-29T00:14:45.152Z,18.15
2022-11-29T00:17:19.595Z,16.77
2022-11-29T00:19:53.212Z,18.77
2022-11-29T00:22:29.693Z,19.60
2022-11-29T00:25:09.515Z,18.77
2022-11-29T00:27:37.315Z,18.75
2022-11-29T00:30:16.954Z,17.75
2022-11-29T00:32:48.426Z,17.83
2022-11-29T00:35:21.798Z,18.70
2022-11-29T00:37:55.071Z,18.55
2022-11-29T00:40:25.236Z,16.75
2022-11-29T00:43:06.649Z,17.38
2022-11-29T00:49:03.502Z,17.15
2022-11-29T00:52:08.093Z,17.55
2022-11-29T01:01:32.690Z,16.83
2022-11-29T01:04:04.255Z,17.02
2022-11-29T01:06:37.254Z,17.98
2022-11-29T01:09:19.484Z,17.25
2022-11-29T01:11:50.415Z,17.85
2022-11-29T01:14:25.184Z,18.27
2022-11-29T01:17:16.289Z,18.20
2022-11-29T01:20:04.132Z,18.50
2022-11-29T01:22:48.218Z,17.92
2022-11-29T01:25:18.920Z,17.92
2022-11-29T01:27:49.210Z,18.05
2022-11-29T01:30:38.082Z,18.65
2022-11-29T01:33:06.340Z,18.08
2022-11-29T01:36:13.623Z,18.70
2022-11-29T01:38:47.290Z,18.42
2022-11-29T01:41:40.039Z,17.17
2022-11-29T01:44:24.963Z,18.30
2022-11-29T01:47:04.268Z,18.17
2022-11-29T01:49:43.193Z,18.58
2022-11-29T01:52:44.849Z,17.88
2022-11-29T01:58:31.121Z,18.33
2022-11-29T02:01:02.048Z,18.73
2022-11-29T02:06:29.067Z,18.92
2022-11-29T02:09:29.589Z,19.05
2022-11-29T02:12:34.570Z,19.10
2022-11-29T02:15:24.216Z,19.00
2022-11-29T02:18:17.398Z,19.20
2022-11-29T02:21:37.781Z,18.95
2022-11-29T02:24:44.371Z,18.25
2022-11-29T02:30:55.894Z,17.92
2022-11-29T02:37:11.780Z,17.73
2022-11-29T02:46:55.005Z,19.42
2022-11-29T02:50:00.367Z,19.35
2022-11-29T02:53:10.590Z,18.67
2022-11-29T02:56:33.743Z,19.75
2022-11-29T03:00:13.564Z,18.00
2022-11-29T03:02:44.151Z,19.08
2022-11-29T03:05:53.652Z,19.23
2022-11-29T03:15:19.338Z,19.83
2022-11-29T03:18:20.573Z,18.60
2022-11-29T03:21:35.374Z,18.55
2022-11-29T03:24:23.810Z,18.13
2022-11-29T03:27:10.850Z,18.35
2022-11-29T03:29:54.900Z,18.83
2022-11-29T03:32:50.741Z,18.67
2022-11-29T03:35:27.652Z,18.55
2022-11-29T03:38:02.744Z,17.98
2022-11-29T03:40:34.481Z,19.05
2022-11-29T03:43:05.334Z,18.98
2022-11-29T03:45:40.687Z,19.27
2022-11-29T03:48:29.193Z,20.00
2022-11-29T03:52:00.177Z,18.95
2022-11-29T03:54:50.249Z,18.50
2022-11-29T03:57:54.922Z,19.92
2022-11-29T04:01:09.362Z,19.40
2022-11-29T04:04:17.003Z,19.65
2022-11-29T04:07:06.234Z,19.17
2022-11-29T04:13:36.983Z,19.65
2022-11-29T04:16:54.605Z,20.40
2022-11-29T04:23:06.290Z,18.88
2022-11-29T04:26:33.563Z,19.42
2022-11-29T04:28:56.827Z,19.10
2022-11-29T04:41:33.694Z,19.38
2022-11-29T04:45:01.938Z,18.05
2022-11-29T04:51:42.221Z,18.67
2022-11-29T04:54:13.776Z,18.45
2022-11-29T04:56:44.154Z,18.35
2022-11-29T04:59:15.013Z,19.20
2022-11-29T05:01:49.562Z,18.98
2022-11-29T05:04:21.221Z,20.50
2022-11-29T05:06:55.495Z,21.05
2022-11-29T05:09:26.105Z,19.50
2022-11-29T05:12:00.028Z,18.10
2022-11-29T05:14:32.504Z,19.30
2022-11-29T05:17:15.558Z,19.42
2022-11-29T05:19:49.480Z,18.80
2022-11-29T05:22:30.951Z,18.67
2022-11-29T05:25:03.430Z,18.67
2022-11-29T05:27:39.512Z,17.45
2022-11-29T05:30:09.194Z,18.05
2022-11-29T05:32:37.811Z,17.55
2022-11-29T05:35:28.406Z,18.80
2022-11-29T05:38:02.572Z,20.65
2022-11-29T05:40:40.606Z,19.33
2022-11-29T05:43:14.068Z,21.70
2022-11-29T05:45:44.619Z,21.85
2022-11-29T05:48:17.574Z,22.67
2022-11-29T05:50:48.997Z,19.92
2022-11-29T05:53:22.517Z,19.67
2022-11-29T05:55:54.320Z,21.25
2022-11-29T05:58:30.367Z,22.85
2022-11-29T06:01:02.315Z,19.35
2022-11-29T06:03:33.796Z,20.77
2022-11-29T06:06:08.129Z,19.48
2022-11-29T06:08:38.298Z,19.95
2022-11-29T06:11:07.037Z,19.35
2022-11-29T06:13:49.825Z,21.33
2022-11-29T06:16:36.145Z,20.75
2022-11-29T06:19:20.804Z,21.90
2022-11-29T06:21:55.325Z,20.08
2022-11-29T06:24:36.055Z,18.85
2022-11-29T06:27:13.837Z,19.52
2022-11-29T06:29:44.375Z,19.38
2022-11-29T06:32:17.637Z,18.27
2022-11-29T06:34:49.980Z,19.35
2022-11-29T06:37:22.575Z,20.05
2022-11-29T06:39:50.346Z,19.80
2022-11-29T06:42:17.908Z,21.42
2022-11-29T06:44:45.987Z,19.60
2022-11-29T06:47:19.716Z,20.58
2022-11-29T06:49:49.220Z,19.92
2022-11-29T06:52:23.689Z,19.75
2022-11-29T06:55:02.917Z,20.85
2022-11-29T06:57:35.603Z,21.45
2022-11-29T07:00:06.207Z,20.10
2022-11-29T07:02:45.155Z,20.15
2022-11-29T07:05:16.531Z,19.55
2022-11-29T07:07:48.541Z,18.88
2022-11-29T07:10:18.115Z,18.55
2022-11-29T07:12:46.333Z,19.75
2022-11-29T07:15:15.047Z,18.25
2022-11-29T07:17:47.487Z,18.75
2022-11-29T07:20:18.245Z,19.33
2022-11-29T07:22:52.320Z,17.88
2022-11-29T07:25:27.813Z,24.05
2022-11-29T07:27:59.772Z,23.33
2022-11-29T07:30:29.359Z,20.13
2022-11-29T07:33:01.942Z,18.55
2022-11-29T07:35:33.569Z,19.00
2022-11-29T07:38:09.962Z,19.25
2022-11-29T07:40:42.135Z,22.17
2022-11-29T07:43:19.061Z,20.17
2022-11-29T07:45:46.872Z,18.10
2022-11-29T07:48:14.655Z,26.17
2022-11-29T07:50:42.348Z,18.02
2022-11-29T07:53:14.136Z,24.88
2022-11-29T07:55:41.627Z,19.88
2022-11-29T07:58:11.239Z,18.35
2022-11-29T08:00:38.832Z,19.27
2022-11-29T08:03:06.459Z,16.15
2022-11-29T08:05:33.943Z,14.55
2022-11-29T08:08:01.562Z,18.70
2022-11-29T08:10:30.856Z,16.65
2022-11-29T08:12:58.484Z,14.40
2022-11-29T08:15:26.366Z,18.08
2022-11-29T08:17:54.528Z,16.80
2022-11-29T08:20:22.017Z,19.60
2022-11-29T08:22:54.709Z,16.10
2022-11-29T08:25:22.590Z,17.15
2022-11-29T08:27:51.735Z,16.08
2022-11-29T08:30:22.327Z,13.68
2022-11-29T08:32:51.798Z,16.92
2022-11-29T08:35:20.032Z,15.73
2022-11-29T08:37:47.639Z,15.93
2022-11-29T08:40:15.933Z,15.38
2022-11-29T08:42:43.452Z,15.00
2022-11-29T08:45:13.204Z,13.70
2022-11-29T08:47:42.341Z,13.35
2022-11-29T08:50:12.573Z,14.50
2022-11-29T08:52:58.997Z,13.70
2022-11-29T08:55:27.885Z,15.70
2022-11-29T08:58:01.209Z,14.75
2022-11-29T09:00:30.147Z,14.60
2022-11-29T09:03:18.141Z,13.50
2022-11-29T09:05:45.930Z,14.23
2022-11-29T09:08:13.762Z,13.45
2022-11-29T09:10:41.777Z,35.15
2022-11-29T09:13:09.662Z,26.92
2022-11-29T09:15:38.903Z,46.67
2022-11-29T09:18:06.678Z,15.48
2022-11-29T09:20:34.954Z,18.35
2022-11-29T09:23:02.536Z,13.07
2022-11-29T09:25:30.318Z,12.20
2022-11-29T09:27:58.867Z,12.95
2022-11-29T09:30:26.488Z,13.18
2022-11-29T09:32:55.541Z,12.70
2022-11-29T09:35:23.169Z,13.52
2022-11-29T09:37:50.712Z,13.85
2022-11-29T09:40:20.907Z,12.35
2022-11-29T09:42:55.227Z,14.00
2022-11-29T09:45:27.820Z,13.40
2022-11-29T09:48:03.800Z,13.02
2022-11-29T09:50:34.391Z,11.60
2022-11-29T09:53:14.500Z,11.13
2022-11-29T09:56:01.107Z,10.95
2022-11-29T09:58:30.990Z,10.57
2022-11-29T10:01:07.552Z,9.68
2022-11-29T10:03:39.272Z,9.77
2022-11-29T10:06:09.447Z,9.05
2022-11-29T10:08:38.008Z,9.02
2022-11-29T10:11:20.398Z,9.90
2022-11-29T10:13:53.247Z,10.32
2022-11-29T10:16:25.091Z,9.50
2022-11-29T10:18:57.117Z,9.48
2022-11-29T10:21:26.523Z,8.68
2022-11-29T10:23:55.196Z,9.10
2022-11-29T10:26:25.882Z,9.15
2022-11-29T10:29:03.618Z,9.32
2022-11-29T10:31:33.677Z,9.93
2022-11-29T10:34:03.609Z,8.88
2022-11-29T10:36:34.543Z,9.18
2022-11-29T10:39:05.266Z,9.55
2022-11-29T10:41:35.665Z,8.73
2022-11-29T10:44:03.291Z,10.88
2022-11-29T10:46:32.165Z,9.00
2022-11-29T10:49:06.748Z,9.52
2022-11-29T10:51:38.780Z,9.20
2022-11-29T10:54:16.139Z,8.77
2022-11-29T10:56:50.945Z,8.85
2022-11-29T10:59:25.880Z,8.82
2022-11-29T11:02:00.906Z,8.90
2022-11-29T11:04:30.936Z,8.73
2022-11-29T11:07:01.405Z,9.32
2022-11-29T11:09:34.492Z,7.90
2022-11-29T11:12:03.911Z,8.00
2022-11-29T11:14:33.028Z,8.13
2022-11-29T11:17:15.401Z,9.02
2022-11-29T11:19:45.876Z,10.00
2022-11-29T11:22:21.787Z,11.80
2022-11-29T11:24:56.822Z,13.82
2022-11-29T11:27:29.740Z,21.77
2022-11-29T11:29:57.311Z,27.02
2022-11-29T11:32:24.851Z,18.00
2022-11-29T11:34:53.499Z,13.52
2022-11-29T11:37:23.875Z,12.00
2022-11-29T11:39:52.562Z,12.75
2022-11-29T11:42:38.212Z,15.95
2022-11-29T11:45:08.478Z,12.65
2022-11-29T11:47:38.113Z,12.13
2022-11-29T11:50:08.789Z,13.10
2022-11-29T11:52:43.850Z,12.10
2022-11-29T11:55:30.179Z,14.27
2022-11-29T11:58:09.433Z,11.30
2022-11-29T12:01:02.457Z,13.57
2022-11-29T12:03:30.038Z,19.33
2022-11-29T12:06:00.354Z,29.25
2022-11-29T12:08:30.431Z,24.00
2022-11-29T12:11:06.863Z,16.45
2022-11-29T12:13:36.825Z,23.42
2022-11-29T12:16:06.412Z,15.32
2022-11-29T12:18:37.958Z,12.50
2022-11-29T12:21:08.545Z,10.35
2022-11-29T12:23:40.821Z,8.50
2022-11-29T12:26:19.184Z,8.85
2022-11-29T12:29:01.320Z,8.13
2022-11-29T12:31:38.660Z,8.68
2022-11-29T12:34:10.760Z,7.68
2022-11-29T12:36:41.947Z,8.20
2022-11-29T12:39:22.709Z,7.25
2022-11-29T12:41:54.137Z,7.30
2022-11-29T12:44:28.696Z,7.18
2022-11-29T12:47:28.148Z,7.25
2022-11-29T12:49:49.415Z,6.28
2022-11-29T12:52:21.457Z,6.88
2022-11-29T12:54:58.190Z,6.82
2022-11-29T12:57:31.398Z,7.05
2022-11-29T13:00:08.089Z,7.55
2022-11-29T13:02:42.355Z,7.47
2022-11-29T13:05:14.106Z,7.00
2022-11-29T13:08:01.410Z,7.25
2022-11-29T13:10:32.660Z,6.97
2022-11-29T13:13:04.049Z,7.20
2022-11-29T13:15:38.086Z,6.47
2022-11-29T13:18:07.468Z,7.10
2022-11-29T13:20:39.677Z,8.57
2022-11-29T13:23:13.337Z,7.97
2022-11-29T13:25:43.606Z,8.30
2022-11-29T13:28:16.359Z,9.05
2022-11-29T13:30:43.988Z,7.43
2022-11-29T13:33:17.626Z,8.20
2022-11-29T13:35:48.154Z,7.30
2022-11-29T13:38:20.018Z,7.00
2022-11-29T13:40:53.205Z,6.63
2022-11-29T13:43:24.172Z,7.00
2022-11-29T13:45:54.114Z,7.78
2022-11-29T13:48:27.880Z,7.28
2022-11-29T13:50:56.088Z,6.80
2022-11-29T13:53:24.919Z,7.38
2022-11-29T13:56:00.336Z,7.85
2022-11-29T13:58:35.777Z,7.50
2022-11-29T14:01:06.613Z,7.93
2022-11-29T14:03:35.794Z,8.07
2022-11-29T14:06:10.994Z,9.02
2022-11-29T14:09:10.833Z,10.88
2022-11-29T14:11:30.816Z,10.23
2022-11-29T14:14:02.163Z,9.75
2022-11-29T14:16:32.269Z,10.05
2022-11-29T14:19:07.741Z,9.77
2022-11-29T14:21:54.222Z,8.70
2022-11-29T14:24:40.833Z,8.77
2022-11-29T14:27:23.344Z,9.35
2022-11-29T14:29:56.094Z,8.80
2022-11-29T14:32:24.649Z,9.10
2022-11-29T14:34:55.672Z,8.90
2022-11-29T14:37:36.350Z,8.00
2022-11-29T14:40:12.500Z,8.60
2022-11-29T14:42:46.481Z,8.60
2022-11-29T14:45:24.518Z,8.68
2022-11-29T14:47:52.958Z,8.80
2022-11-29T14:50:30.794Z,9.70
2022-11-29T14:52:58.433Z,8.63
2022-11-29T14:55:30.554Z,8.93
2022-11-29T14:58:07.111Z,9.52
2022-11-29T15:00:39.154Z,10.05
2022-11-29T15:03:11.066Z,9.20
2022-11-29T15:05:39.789Z,9.48
2022-11-29T15:08:10.415Z,9.70
2022-11-29T15:10:40.001Z,8.82
2022-11-29T15:13:10.839Z,8.52
2022-11-29T15:15:45.530Z,9.30
2022-11-29T15:18:21.539Z,8.93
2022-11-29T15:20:55.475Z,8.73
2022-11-29T15:23:22.954Z,9.27
2022-11-29T15:25:51.433Z,9.40
2022-11-29T15:28:21.100Z,9.10
2022-11-29T15:30:51.103Z,8.98
2022-11-29T15:33:22.608Z,9.30
2022-11-29T15:35:51.727Z,9.23
2022-11-29T15:38:19.655Z,9.90
2022-11-29T15:40:52.813Z,11.65
2022-11-29T15:43:22.918Z,10.85
2022-11-29T15:45:54.103Z,10.55
2022-11-29T15:48:24.003Z,12.80
2022-11-29T15:50:54.651Z,13.43
2022-11-29T15:53:24.249Z,12.98
2022-11-29T15:55:56.423Z,12.07
2022-11-29T15:58:24.611Z,11.85
2022-11-29T16:00:54.215Z,10.15
2022-11-29T16:03:25.256Z,11.38
2022-11-29T16:05:57.081Z,11.63
2022-11-29T16:08:26.440Z,13.43
2022-11-29T16:10:54.116Z,13.07
2022-11-29T16:13:34.607Z,14.30
2022-11-29T16:16:08.180Z,13.23
2022-11-29T16:18:36.124Z,13.18
2022-11-29T16:21:04.917Z,12.32
2022-11-29T16:23:34.109Z,12.93
2022-11-29T16:26:03.249Z,13.27
2022-11-29T16:28:32.504Z,12.40
2022-11-29T16:31:00.847Z,12.32
2022-11-29T16:33:29.984Z,12.02
2022-11-29T16:36:04.790Z,12.57
2022-11-29T16:38:34.494Z,11.73
2022-11-29T16:41:04.448Z,14.05
2022-11-29T16:43:46.980Z,11.68
2022-11-29T16:46:32.598Z,12.30
2022-11-29T16:49:02.656Z,11.25
2022-11-29T16:51:39.742Z,13.90
2022-11-29T16:54:22.267Z,12.10
2022-11-29T16:56:50.522Z,12.13
2022-11-29T16:59:26.738Z,13.95
2022-11-29T17:01:55.790Z,16.00
2022-11-29T17:04:25.344Z,13.85
2022-11-29T17:06:53.469Z,13.07
2022-11-29T17:09:23.170Z,12.18
2022-11-29T17:11:51.076Z,12.77
2022-11-29T17:14:18.647Z,12.85
2022-11-29T17:16:49.170Z,13.30
2022-11-29T17:19:17.219Z,14.10
2022-11-29T17:21:46.290Z,16.58
2022-11-29T17:24:14.813Z,17.73
2022-11-29T17:26:43.823Z,21.17
2022-11-29T17:29:11.873Z,14.82
2022-11-29T17:31:39.822Z,16.85
2022-11-29T17:34:08.635Z,17.02
2022-11-29T17:36:36.238Z,16.27
2022-11-29T17:39:05.798Z,15.88
2022-11-29T17:41:33.713Z,18.27
2022-11-29T17:44:01.475Z,17.88
2022-11-29T17:46:29.976Z,18.67
2022-11-29T17:48:59.432Z,16.20
2022-11-29T17:51:51.044Z,19.65
2022-11-29T17:54:15.976Z,16.27
2022-11-29T17:56:43.510Z,15.15
2022-11-29T17:59:11.073Z,15.07
2022-11-29T18:01:38.771Z,14.82
2022-11-29T18:04:08.387Z,14.40
2022-11-29T18:06:36.939Z,18.70
2022-11-29T18:09:05.030Z,19.23
2022-11-29T18:11:43.297Z,18.00
2022-11-29T18:14:15.804Z,16.98
2022-11-29T18:16:44.954Z,17.33
2022-11-29T18:19:13.560Z,17.08
2022-11-29T18:21:41.464Z,16.30
2022-11-29T18:24:09.460Z,17.42
2022-11-29T18:26:39.002Z,22.08
2022-11-29T18:29:07.175Z,22.80
2022-11-29T18:31:36.184Z,22.38
2022-11-29T18:34:06.974Z,21.05
2022-11-29T18:36:35.717Z,22.50
2022-11-29T18:39:09.131Z,27.40
2022-11-29T18:41:38.445Z,26.85
2022-11-29T18:44:07.045Z,28.40
2022-11-29T18:46:37.007Z,25.58
2022-11-29T18:49:08.488Z,36.13
2022-11-29T18:51:36.791Z,25.67
2022-11-29T18:54:05.383Z,21.73
2022-11-29T18:56:34.472Z,20.55
2022-11-29T18:59:04.722Z,21.73
2022-11-29T19:01:33.867Z,21.05
2022-11-29T19:04:01.770Z,21.40
2022-11-29T19:06:37.099Z,21.40
2022-11-29T19:09:06.907Z,21.63
2022-11-29T19:11:34.978Z,21.83
2022-11-29T19:14:05.458Z,22.20
2022-11-29T19:16:34.281Z,21.35
2022-11-29T19:19:02.407Z,20.42
2022-11-29T19:21:31.781Z,20.02
2022-11-29T19:24:00.807Z,22.10
2022-11-29T19:26:29.054Z,22.02
2022-11-29T19:28:57.039Z,20.75
2022-11-29T19:31:27.066Z,22.63
2022-11-29T19:33:55.656Z,23.02
2022-11-29T19:36:24.348Z,22.70
2022-11-29T19:38:54.121Z,23.63
2022-11-29T19:41:23.501Z,23.58
2022-11-29T19:43:51.682Z,26.70
2022-11-29T19:46:20.416Z,25.50
2022-11-29T19:48:49.501Z,25.25
2022-11-29T19:51:18.009Z,24.55
2022-11-29T19:53:45.973Z,25.40
2022-11-29T19:56:14.291Z,24.20
2022-11-29T19:58:42.012Z,25.02
2022-11-29T20:01:10.789Z,25.02
2022-11-29T20:03:38.967Z,23.50
2022-11-29T20:06:08.181Z,24.30
2022-11-29T20:08:36.210Z,23.63
2022-11-29T20:11:07.874Z,22.75
2022-11-29T20:13:35.485Z,21.80
2022-11-29T20:16:03.535Z,22.73
2022-11-29T20:18:31.685Z,24.13
2022-11-29T20:21:03.508Z,22.15
2022-11-29T20:23:32.986Z,22.77
2022-11-29T20:26:01.858Z,22.80
2022-11-29T20:28:29.417Z,23.73
2022-11-29T20:30:57.041Z,23.05
2022-11-29T20:33:26.009Z,23.38
2022-11-29T20:35:59.064Z,22.50
2022-11-29T20:38:31.861Z,22.30
2022-11-29T20:41:04.848Z,24.17
2022-11-29T20:43:37.520Z,23.10
2022-11-29T20:46:05.336Z,22.77
2022-11-29T20:48:33.170Z,24.58
2022-11-29T20:51:01.992Z,29.23
2022-11-29T20:53:34.359Z,26.08
2022-11-29T20:56:03.653Z,25.27
2022-11-29T20:58:31.213Z,24.88
2022-11-29T21:00:58.895Z,24.92
2022-11-29T21:03:27.876Z,25.92
2022-11-29T21:05:56.278Z,26.60
2022-11-29T21:08:26.537Z,24.45
2022-11-29T21:10:54.513Z,23.75
2022-11-29T21:13:24.047Z,24.40
2022-11-29T21:15:52.162Z,25.00
2022-11-29T21:18:22.618Z,23.55
2022-11-29T21:20:57.802Z,25.05
2022-11-29T21:23:29.592Z,25.02
2022-11-29T21:26:00.554Z,24.75
2022-11-29T21:28:31.380Z,26.50
2022-11-29T21:30:59.294Z,24.90
2022-11-29T21:33:27.361Z,24.67
2022-11-29T21:35:58.016Z,24.17
2022-11-29T21:38:26.812Z,25.45
2022-11-29T21:40:55.789Z,26.40
2022-11-29T21:43:50.257Z,24.63
2022-11-29T21:46:13.291Z,24.52
2022-11-29T21:48:42.395Z,24.60
2022-11-29T21:51:11.099Z,25.23
2022-11-29T21:53:39.406Z,24.75
2022-11-29T21:56:07.942Z,24.52
2022-11-29T21:58:36.358Z,27.08
2022-11-29T22:01:07.760Z,26.70
2022-11-29T22:03:36.719Z,26.33
2022-11-29T22:06:04.702Z,25.67
2022-11-29T22:08:34.180Z,26.63
2022-11-29T22:11:03.073Z,25.35
2022-11-29T22:13:30.803Z,25.77
2022-11-29T22:16:05.036Z,25.92
2022-11-29T22:18:32.682Z,25.77
2022-11-29T22:21:05.451Z,26.85
2022-11-29T22:23:33.019Z,26.63
2022-11-29T22:26:04.439Z,24.98
2022-11-29T22:28:32.044Z,24.52
2022-11-29T22:31:03.884Z,24.65
2022-11-29T22:33:31.585Z,25.40
2022-11-29T22:36:02.650Z,26.00
2022-11-29T22:38:31.632Z,24.73
2022-11-29T22:41:02.655Z,25.65
2022-11-29T22:43:30.481Z,24.52
2022-11-29T22:46:04.268Z,25.38
2022-11-29T22:48:36.989Z,24.08
2022-11-29T22:51:06.716Z,23.80
2022-11-29T22:53:35.916Z,24.02
2022-11-29T22:56:04.597Z,25.95
2022-11-29T22:58:32.195Z,24.75
2022-11-29T23:01:03.782Z,25.27
2022-11-29T23:03:33.546Z,23.48
2022-11-29T23:06:03.346Z,25.08
2022-11-29T23:08:30.845Z,27.40
2022-11-29T23:10:59.913Z,25.58
2022-11-29T23:13:27.519Z,24.80
2022-11-29T23:15:57.325Z,25.17
2022-11-29T23:18:24.954Z,25.05
2022-11-29T23:20:52.558Z,24.73
2022-11-29T23:23:20.037Z,25.08
2022-11-29T23:25:48.112Z,24.63
2022-11-29T23:28:17.331Z,25.55
2022-11-29T23:30:45.147Z,24.27
2022-11-29T23:33:12.695Z,23.58
2022-11-29T23:35:40.278Z,24.25
2022-11-29T23:38:08.179Z,25.02
2022-11-29T23:40:37.241Z,25.10
2022-11-29T23:43:04.790Z,24.63
2022-11-29T23:45:33.777Z,24.13
2022-11-29T23:48:01.371Z,22.92
2022-11-29T23:50:28.958Z,24.15
2022-11-29T23:52:56.925Z,25.27
2022-11-29T23:55:24.654Z,23.45
2022-11-29T23:57:52.497Z,22.70
